Time;durP1;ratioP1;P1;durP2;ratioP2;P2;SDS_P1;SDS_P2;PMS_P1;PMS_P2;Temp;Humidity;BMP_temperature;BMP_pressure;BME280_temperature;BME280_humidity;BME280_pressure;Samples;Min_cycle;Max_cycle;Signal;HPM_P1;HPM_P2
2022/12/28 00:01:06;;;;;;;3.47;3.23;;;;;;;11.70;62.99;100478.75;4992806;28;20287;-65
2022/12/28 00:03:32;;;;;;;2.87;2.77;;;;;;;11.70;63.35;100484.06;4993065;28;20193;-65
2022/12/28 00:06:01;;;;;;;3.40;3.20;;;;;;;11.72;62.90;100487.41;4992447;28;20632;-65
2022/12/28 00:08:27;;;;;;;4.30;2.70;;;;;;;11.58;62.91;100485.47;4992357;28;20204;-65
2022/12/28 00:11:00;;;;;;;4.10;2.87;;;;;;;11.57;62.75;100484.66;4992822;28;20622;-66
2022/12/28 00:13:27;;;;;;;3.00;2.80;;;;;;;11.64;62.33;100490.13;4992800;28;20195;-67
2022/12/28 00:15:53;;;;;;;5.13;3.40;;;;;;;11.58;62.10;100481.00;4992315;28;20659;-66
2022/12/28 00:18:20;;;;;;;3.43;3.23;;;;;;;11.70;61.71;100500.88;4992673;28;20224;-66
2022/12/28 00:20:57;;;;;;;3.87;3.00;;;;;;;11.67;61.88;100495.09;4992834;28;20196;-65
2022/12/28 00:23:25;;;;;;;3.50;3.10;;;;;;;11.70;62.00;100495.56;4992756;28;20188;-65
2022/12/28 00:25:52;;;;;;;3.50;3.30;;;;;;;11.69;61.65;100487.75;4992582;28;20252;-65
2022/12/28 00:28:19;;;;;;;3.47;3.17;;;;;;;11.73;61.64;100483.72;4992845;28;20267;-65
2022/12/28 00:30:46;;;;;;;4.93;3.00;;;;;;;11.75;61.36;100490.53;4992107;28;20200;-65
2022/12/28 00:33:12;;;;;;;3.10;2.90;;;;;;;11.77;61.30;100496.50;4993415;28;20192;-66
2022/12/28 00:35:39;;;;;;;2.73;2.57;;;;;;;11.81;61.01;100500.47;4992178;28;20714;-66
2022/12/28 00:38:06;;;;;;;3.43;3.20;;;;;;;11.87;60.84;100502.41;4992192;28;20699;-66
2022/12/28 00:40:34;;;;;;;3.00;2.80;;;;;;;11.87;60.48;100507.72;4992402;28;20196;-66
2022/12/28 00:43:00;;;;;;;2.90;2.70;;;;;;;11.89;60.33;100503.06;4992175;28;20196;-66
2022/12/28 00:45:27;;;;;;;3.80;3.43;;;;;;;11.96;59.82;100503.19;4992078;28;20227;-66
2022/12/28 00:47:54;;;;;;;3.13;2.93;;;;;;;11.99;59.70;100500.97;4992445;28;20738;-66
2022/12/28 00:50:20;;;;;;;3.20;2.83;;;;;;;11.99;59.62;100506.28;4992007;28;20624;-66
2022/12/28 00:52:47;;;;;;;3.20;2.90;;;;;;;11.99;59.09;100500.13;4992098;28;20661;-66
2022/12/28 00:55:14;;;;;;;3.50;2.87;;;;;;;12.01;59.01;100508.78;4993026;28;20635;-66
2022/12/28 00:57:42;;;;;;;3.10;2.90;;;;;;;12.02;58.89;100505.94;4993150;28;20299;-66
2022/12/28 01:00:09;;;;;;;3.03;2.90;;;;;;;12.02;58.81;100513.09;4995186;28;20261;-66
2022/12/28 01:02:36;;;;;;;2.80;2.60;;;;;;;12.08;58.75;100515.84;4995866;28;20189;-65
2022/12/28 01:05:03;;;;;;;3.17;2.97;;;;;;;12.11;58.27;100520.81;4995554;28;20196;-66
2022/12/28 01:07:29;;;;;;;3.30;2.73;;;;;;;12.10;58.23;100515.69;5007111;28;20209;-66
2022/12/28 01:09:56;;;;;;;11.57;3.40;;;;;;;12.13;58.27;100521.47;5014560;28;20231;-66
2022/12/28 01:12:23;;;;;;;3.37;3.03;;;;;;;12.16;58.35;100518.44;5015240;28;20195;-65
2022/12/28 01:14:51;;;;;;;3.80;3.50;;;;;;;12.12;57.95;100509.16;5014858;28;20195;-65
2022/12/28 01:17:17;;;;;;;2.70;2.50;;;;;;;12.07;57.86;100508.88;5015033;28;20307;-65
2022/12/28 01:19:44;;;;;;;3.10;2.90;;;;;;;12.01;57.66;100511.44;5015084;28;20196;-65
2022/12/28 01:22:11;;;;;;;5.53;2.90;;;;;;;12.01;57.36;100511.44;5014886;28;20192;-65
2022/12/28 01:24:37;;;;;;;4.60;2.97;;;;;;;11.92;57.15;100516.00;5015077;28;20250;-66
2022/12/28 01:27:04;;;;;;;3.20;3.00;;;;;;;11.86;57.05;100511.41;5014566;28;20194;-65
2022/12/28 01:29:31;;;;;;;4.63;4.20;;;;;;;11.70;57.40;100516.03;5010062;28;20268;-66
2022/12/28 01:31:59;;;;;;;4.40;4.00;;;;;;;11.62;57.52;100505.44;4995539;28;20249;-65
2022/12/28 01:34:26;;;;;;;4.10;3.67;;;;;;;11.67;57.48;100511.88;4994929;28;20192;-65
2022/12/28 01:36:52;;;;;;;3.27;3.03;;;;;;;11.74;57.02;100507.50;4994875;28;20730;-65
2022/12/28 01:39:19;;;;;;;2.90;2.70;;;;;;;11.77;56.93;100501.84;4995339;28;20690;-65
2022/12/28 01:41:46;;;;;;;2.67;2.50;;;;;;;11.81;56.54;100511.13;4995021;28;20205;-65
2022/12/28 01:44:47;;;;;;;2.87;2.67;;;;;;;11.82;56.43;100511.94;4995117;28;20205;-65
2022/12/28 01:47:23;;;;;;;4.43;2.87;;;;;;;11.89;56.36;100510.22;4995197;28;20545;-65
2022/12/28 01:50:03;;;;;;;3.00;2.80;;;;;;;11.97;55.96;100513.63;4995063;28;20249;-66
2022/12/28 01:52:36;;;;;;;2.80;2.60;;;;;;;12.00;56.44;100507.94;4994633;28;20652;-65
2022/12/28 01:55:08;;;;;;;2.77;2.57;;;;;;;12.03;56.22;100502.25;4995255;28;20244;-65
2022/12/28 01:57:39;;;;;;;3.50;2.83;;;;;;;12.03;55.30;100512.91;4994916;28;20214;-65
2022/12/28 02:00:09;;;;;;;2.67;2.50;;;;;;;11.96;55.01;100501.31;4995028;28;20188;-65
2022/12/28 02:02:38;;;;;;;3.10;2.67;;;;;;;12.07;55.02;100511.53;4994843;28;20251;-64
2022/12/28 02:05:07;;;;;;;2.43;2.33;;;;;;;12.05;54.11;100516.22;4994662;28;20324;-65
2022/12/28 02:07:42;;;;;;;2.93;2.73;;;;;;;11.98;54.48;100512.63;4994805;28;20201;-65
2022/12/28 02:10:10;;;;;;;2.80;2.47;;;;;;;11.99;54.40;100519.59;4994354;28;20237;-65
2022/12/28 02:12:38;;;;;;;2.30;2.20;;;;;;;11.97;54.02;100521.59;4994039;28;20235;-64
2022/12/28 02:15:06;;;;;;;2.77;2.63;;;;;;;11.86;53.84;100515.88;4994220;28;20229;-65
2022/12/28 02:17:33;;;;;;;2.23;2.13;;;;;;;11.68;54.06;100516.19;4994319;28;20193;-65
2022/12/28 02:20:01;;;;;;;3.03;2.83;;;;;;;11.64;54.16;100511.41;4994113;28;20259;-65
2022/12/28 02:22:54;;;;;;;2.80;2.50;;;;;;;11.54;54.28;100510.78;4993974;28;20252;-65
2022/12/28 02:25:44;;;;;;;2.63;2.47;;;;;;;11.58;54.41;100512.91;4941249;28;20201;-65
2022/12/28 02:28:28;;;;;;;4.17;2.87;;;;;;;11.57;54.21;100511.28;4941379;28;20743;-65
2022/12/28 02:31:03;;;;;;;2.60;2.40;;;;;;;11.53;54.58;100499.31;4993869;28;20189;-65
2022/12/28 02:33:39;;;;;;;2.87;2.67;;;;;;;11.57;54.43;100508.63;4994492;28;20650;-65
2022/12/28 02:36:13;;;;;;;2.47;2.30;;;;;;;11.57;54.03;100505.13;4994409;28;20192;-65
2022/12/28 02:38:46;;;;;;;2.83;2.63;;;;;;;11.63;53.81;100513.25;4993774;28;20213;-65
2022/12/28 02:41:15;;;;;;;2.47;2.37;;;;;;;11.59;53.74;100508.44;4993887;28;20560;-66
2022/12/28 02:43:42;;;;;;;3.00;2.80;;;;;;;11.44;53.71;100484.44;4993646;28;20673;-66
2022/12/28 02:52:05;;;;;;;2.70;2.50;;;;;;;11.64;53.38;100500.78;4992134;28;20201;-65
2022/12/28 02:57:55;;;;;;;3.30;3.00;;;;;;;11.61;53.32;100501.13;4993395;28;20187;-65
2022/12/28 03:00:26;;;;;;;2.70;2.60;;;;;;;11.59;53.71;100503.13;4993428;28;20256;-65
2022/12/28 03:03:20;;;;;;;2.70;2.50;;;;;;;11.54;53.78;100514.28;4993530;28;20196;-65
2022/12/28 03:08:57;;;;;;;2.50;2.40;;;;;;;11.54;53.38;100516.09;4993369;28;20251;-65
2022/12/28 03:11:29;;;;;;;3.03;2.70;;;;;;;11.43;53.46;100514.69;4993800;28;20212;-64
2022/12/28 03:14:02;;;;;;;2.47;2.37;;;;;;;11.45;53.86;100502.03;4993834;28;20247;-64
2022/12/28 03:25:41;;;;;;;2.90;2.70;;;;;;;11.54;53.60;100510.78;4993697;28;20193;-65
2022/12/28 03:33:11;;;;;;;9.30;8.13;;;;;;;11.40;53.19;100499.09;4956335;28;20249;-64
2022/12/28 03:35:45;;;;;;;5.80;5.27;;;;;;;11.52;53.60;100508.31;4993315;28;20246;-64
2022/12/28 03:38:26;;;;;;;3.30;3.10;;;;;;;11.58;53.18;100512.09;4992403;28;20212;-64
2022/12/28 03:40:59;;;;;;;2.77;2.60;;;;;;;11.56;52.99;100506.94;4992736;28;20189;-64
2022/12/28 03:43:39;;;;;;;4.60;3.20;;;;;;;11.59;53.14;100513.75;4992535;28;20188;-64
2022/12/28 03:46:13;;;;;;;3.03;2.83;;;;;;;11.58;53.56;100512.91;4992452;28;20192;-65
2022/12/28 03:48:41;;;;;;;3.07;2.87;;;;;;;11.58;53.23;100506.75;4992526;28;20191;-65
2022/12/28 03:51:10;;;;;;;2.83;2.50;;;;;;;11.54;53.52;100508.13;4992728;28;20262;-65
2022/12/28 03:53:41;;;;;;;2.43;2.33;;;;;;;11.51;53.06;100509.31;4992346;28;20196;-66
2022/12/28 03:56:10;;;;;;;2.80;2.60;;;;;;;11.41;52.98;100508.72;4992585;28;20193;-66
2022/12/28 03:58:37;;;;;;;2.50;2.30;;;;;;;11.46;52.86;100513.50;4992278;28;20283;-66
2022/12/28 04:01:04;;;;;;;3.10;2.90;;;;;;;11.44;53.03;100511.03;4992598;28;20202;-66
2022/12/28 04:03:31;;;;;;;3.10;2.80;;;;;;;11.45;53.31;100509.19;4992442;28;20205;-65
2022/12/28 04:05:58;;;;;;;2.73;2.53;;;;;;;11.51;53.16;100511.97;4992786;28;20193;-66
2022/12/28 04:08:26;;;;;;;4.40;2.53;;;;;;;11.51;53.06;100517.28;4992470;28;20258;-66
2022/12/28 04:10:54;;;;;;;3.13;2.80;;;;;;;11.44;52.99;100524.34;4992526;28;20252;-66
2022/12/28 04:13:20;;;;;;;2.97;2.53;;;;;;;11.48;52.98;100522.16;4992598;28;20200;-66
2022/12/28 04:15:56;;;;;;;3.83;3.53;;;;;;;11.45;52.79;100523.34;4992598;28;20192;-67
2022/12/28 04:18:23;;;;;;;3.20;3.00;;;;;;;11.40;52.93;100524.84;4992038;28;20298;-65
2022/12/28 04:20:50;;;;;;;2.77;2.57;;;;;;;11.39;53.00;100529.34;4992492;28;20196;-65
2022/12/28 04:23:16;;;;;;;2.90;2.30;;;;;;;11.28;53.16;100532.41;4992561;28;20675;-65
2022/12/28 04:25:44;;;;;;;2.50;2.40;;;;;;;11.22;53.68;100526.97;4991995;28;20627;-66
2022/12/28 04:28:11;;;;;;;2.67;2.47;;;;;;;11.17;53.48;100524.81;4992048;28;20212;-66
2022/12/28 04:30:38;;;;;;;3.27;2.30;;;;;;;11.23;53.31;100524.13;4992297;28;20668;-66
2022/12/28 04:33:04;;;;;;;2.40;2.30;;;;;;;11.07;53.43;100529.53;4992452;28;20194;-66
2022/12/28 04:35:33;;;;;;;4.90;2.40;;;;;;;11.04;53.55;100529.88;4995743;28;20199;-66
2022/12/28 04:37:59;;;;;;;3.50;2.93;;;;;;;11.14;53.81;100530.47;4995896;28;20585;-65
2022/12/28 04:40:26;;;;;;;3.87;3.57;;;;;;;11.18;53.77;100523.81;4995920;28;20201;-65
2022/12/28 04:42:54;;;;;;;3.60;3.40;;;;;;;11.25;53.75;100518.63;4995549;28;20195;-65
2022/12/28 04:45:21;;;;;;;3.93;3.00;;;;;;;11.29;53.46;100528.75;4996032;28;20201;-64
2022/12/28 04:47:47;;;;;;;3.27;3.07;;;;;;;11.36;53.12;100528.88;4995341;28;20211;-65
2022/12/28 04:50:14;;;;;;;3.23;3.03;;;;;;;11.26;53.04;100512.31;4995517;28;20699;-64
2022/12/28 04:52:41;;;;;;;2.63;2.43;;;;;;;11.43;52.71;100525.31;4995151;28;20199;-66
2022/12/28 04:55:08;;;;;;;3.77;2.83;;;;;;;11.38;53.02;100534.81;4995741;28;20192;-65
2022/12/28 04:57:35;;;;;;;2.80;2.63;;;;;;;11.38;53.15;100532.16;4995123;28;20254;-65
2022/12/28 05:00:04;;;;;;;2.97;2.77;;;;;;;11.39;52.81;100539.97;4995322;28;20233;-65
2022/12/28 05:02:31;;;;;;;2.83;2.73;;;;;;;11.35;53.24;100532.53;4995904;28;20201;-66
2022/12/28 05:04:58;;;;;;;3.70;3.40;;;;;;;11.39;53.21;100547.16;4995641;28;20200;-66
2022/12/28 05:07:24;;;;;;;2.50;2.40;;;;;;;11.31;53.67;100545.34;4995710;28;20272;-66
2022/12/28 05:09:51;;;;;;;3.50;2.60;;;;;;;11.39;53.50;100550.63;4995616;28;20236;-66
2022/12/28 05:12:18;;;;;;;3.33;3.13;;;;;;;11.44;53.67;100547.44;4995743;28;20254;-66
2022/12/28 05:14:44;;;;;;;5.50;3.13;;;;;;;11.52;53.43;100556.22;4995157;28;20201;-66
2022/12/28 05:17:12;;;;;;;2.93;2.73;;;;;;;11.57;53.58;100547.69;4995279;28;20686;-66
2022/12/28 05:19:39;;;;;;;5.80;2.70;;;;;;;11.61;53.73;100547.19;4995161;28;20221;-65
2022/12/28 05:22:10;;;;;;;2.90;2.70;;;;;;;11.59;53.71;100554.47;4995192;28;20558;-65
2022/12/28 05:24:37;;;;;;;5.33;2.80;;;;;;;11.53;53.88;100551.69;4995158;28;20184;-66
2022/12/28 05:27:04;;;;;;;3.77;2.90;;;;;;;11.44;54.32;100556.28;4995564;28;20201;-65
2022/12/28 05:29:30;;;;;;;4.13;2.90;;;;;;;11.38;54.82;100564.09;4994898;28;20761;-65
2022/12/28 05:31:57;;;;;;;5.13;2.93;;;;;;;11.40;54.98;100570.91;4995683;28;20198;-66
2022/12/28 05:34:25;;;;;;;3.57;3.27;;;;;;;11.33;55.01;100572.63;4995251;28;20291;-65
2022/12/28 05:36:52;;;;;;;3.37;3.03;;;;;;;11.13;55.74;100576.69;4994784;28;20246;-65
2022/12/28 05:39:18;;;;;;;3.77;3.53;;;;;;;10.98;56.58;100578.41;4994703;28;20351;-65
2022/12/28 05:41:45;;;;;;;3.27;2.97;;;;;;;10.93;56.74;100578.09;4994719;28;20658;-66
2022/12/28 05:44:12;;;;;;;4.97;3.83;;;;;;;11.00;56.33;100574.56;4994566;28;20675;-66
2022/12/28 05:46:38;;;;;;;6.90;3.70;;;;;;;11.10;56.24;100576.22;4993419;28;20616;-65
2022/12/28 05:49:08;;;;;;;4.00;3.60;;;;;;;11.11;56.36;100573.38;4994731;28;20275;-65
2022/12/28 05:51:36;;;;;;;4.33;3.63;;;;;;;11.12;56.21;100591.00;4995027;28;20203;-65
2022/12/28 05:54:04;;;;;;;4.00;3.60;;;;;;;11.17;56.11;100598.44;4994481;28;20271;-65
2022/12/28 05:56:31;;;;;;;3.77;3.47;;;;;;;11.23;56.38;100590.59;4994292;28;20673;-66
2022/12/28 05:58:59;;;;;;;5.40;5.00;;;;;;;11.11;56.67;100594.63;4994161;28;20286;-66
2022/12/28 06:01:27;;;;;;;4.53;4.07;;;;;;;11.03;57.27;100598.16;4994300;28;20196;-65
2022/12/28 06:03:56;;;;;;;4.90;4.60;;;;;;;11.10;57.22;100603.63;4993750;28;20255;-65
2022/12/28 06:06:23;;;;;;;4.60;4.30;;;;;;;11.14;57.06;100601.47;4994321;28;20200;-66
2022/12/28 06:08:51;;;;;;;4.70;4.40;;;;;;;11.21;57.43;100599.75;4993860;28;20290;-65
2022/12/28 06:11:20;;;;;;;5.97;5.53;;;;;;;11.26;56.64;100608.88;4994625;28;20193;-66
2022/12/28 06:13:46;;;;;;;6.93;6.33;;;;;;;11.29;57.21;100595.25;4993910;28;20205;-66
2022/12/28 06:16:15;;;;;;;13.50;5.97;;;;;;;11.37;56.91;100605.00;4993956;28;20266;-66
2022/12/28 06:18:43;;;;;;;6.47;5.50;;;;;;;11.33;57.04;100601.88;4993884;28;20204;-66
2022/12/28 06:21:11;;;;;;;5.80;4.50;;;;;;;11.29;57.00;100603.22;4993941;28;20659;-66
2022/12/28 06:23:38;;;;;;;5.73;5.33;;;;;;;11.30;56.98;100602.22;4993994;28;20243;-66
2022/12/28 06:26:08;;;;;;;10.23;5.20;;;;;;;11.33;56.73;100604.53;4994227;28;20267;-66
2022/12/28 06:28:36;;;;;;;7.80;5.17;;;;;;;11.02;57.45;100600.19;4994135;28;20197;-66
2022/12/28 06:31:04;;;;;;;7.57;6.67;;;;;;;10.75;58.37;100609.41;4993396;28;20197;-66
2022/12/28 06:33:31;;;;;;;5.73;5.20;;;;;;;10.76;58.26;100611.06;4993408;28;20193;-66
2022/12/28 06:35:58;;;;;;;4.67;4.27;;;;;;;10.72;58.46;100599.09;4993306;28;20258;-66
2022/12/28 06:38:28;;;;;;;7.43;4.63;;;;;;;10.64;58.73;100596.47;4993734;28;20192;-66
2022/12/28 06:40:55;;;;;;;6.20;5.60;;;;;;;10.71;58.81;100602.78;4993627;28;20288;-66
2022/12/28 06:43:23;;;;;;;8.03;5.40;;;;;;;10.71;58.80;100603.59;4993365;28;20219;-66
2022/12/28 06:45:56;;;;;;;6.90;4.97;;;;;;;10.77;58.62;100602.91;4993053;28;20193;-65
2022/12/28 06:48:23;;;;;;;48.40;24.03;;;;;;;10.72;58.69;100605.25;4993351;28;20200;-65
2022/12/28 06:50:57;;;;;;;29.07;19.17;;;;;;;10.87;58.28;100605.38;4992880;28;20200;-65
2022/12/28 06:53:23;;;;;;;28.43;15.50;;;;;;;10.94;58.26;100598.38;4993114;28;20241;-67
2022/12/28 06:55:54;;;;;;;24.77;7.77;;;;;;;10.93;58.38;100607.34;4993453;28;20195;-67
2022/12/28 06:58:23;;;;;;;6.47;5.73;;;;;;;10.89;58.79;100606.03;4993321;28;20200;-66
2022/12/28 07:00:49;;;;;;;6.27;4.53;;;;;;;10.69;59.55;100616.22;4992973;28;20222;-66
2022/12/28 07:03:17;;;;;;;11.30;6.70;;;;;;;10.63;60.88;100600.94;4993131;28;20203;-66
2022/12/28 07:05:44;;;;;;;24.47;12.57;;;;;;;10.81;60.83;100619.34;4992595;28;20196;-67
2022/12/28 07:08:11;;;;;;;26.07;15.23;;;;;;;10.87;60.63;100624.00;4993293;28;20211;-66
2022/12/28 07:10:38;;;;;;;25.90;14.00;;;;;;;11.03;60.46;100629.28;4992274;28;20725;-66
2022/12/28 07:13:06;;;;;;;19.57;14.53;;;;;;;11.07;60.04;100627.94;4992665;28;20200;-66
2022/12/28 07:15:35;;;;;;;17.50;13.70;;;;;;;11.19;59.82;100631.03;4992665;28;20203;-67
2022/12/28 07:18:02;;;;;;;18.53;12.13;;;;;;;11.28;59.63;100637.97;4992680;28;20200;-68
2022/12/28 07:20:28;;;;;;;34.10;14.73;;;;;;;11.37;59.33;100636.94;4992832;28;20234;-68
2022/12/28 07:22:55;;;;;;;20.93;11.63;;;;;;;11.46;59.08;100642.03;4993004;28;20196;-68
2022/12/28 07:25:22;;;;;;;14.67;10.87;;;;;;;11.53;59.25;100650.16;4992471;28;20208;-68
2022/12/28 07:27:48;;;;;;;36.87;10.17;;;;;;;11.64;59.02;100649.81;4992639;28;20572;-69
2022/12/28 07:30:15;;;;;;;22.67;8.77;;;;;;;11.69;58.70;100656.28;4992768;28;20200;-70
2022/12/28 07:32:43;;;;;;;8.60;6.37;;;;;;;11.75;58.77;100660.88;4990971;28;20255;-70
2022/12/28 07:35:10;;;;;;;13.33;6.83;;;;;;;11.86;58.77;100660.50;4990251;28;20187;-70
2022/12/28 07:37:37;;;;;;;6.63;6.07;;;;;;;11.92;58.48;100672.28;4990224;28;20188;-70
2022/12/28 07:40:04;;;;;;;37.63;9.53;;;;;;;11.99;58.40;100658.06;4988033;28;20216;-72
2022/12/28 07:42:31;;;;;;;22.63;8.17;;;;;;;12.07;58.60;100659.84;4991248;28;20249;-70
2022/12/28 07:44:58;;;;;;;175.77;17.17;;;;;;;12.11;58.47;100659.31;4990057;28;20201;-70
2022/12/28 07:47:25;;;;;;;20.70;8.30;;;;;;;12.10;58.25;100668.31;4991417;28;20552;-69
2022/12/28 07:49:53;;;;;;;10.63;8.87;;;;;;;12.12;57.80;100670.81;4990728;28;20270;-69
2022/12/28 07:52:19;;;;;;;9.10;6.60;;;;;;;12.09;57.89;100671.97;4991417;28;20251;-69
2022/12/28 07:54:46;;;;;;;11.30;7.27;;;;;;;12.10;58.28;100673.66;4991456;28;20192;-70
2022/12/28 07:57:13;;;;;;;6.93;6.30;;;;;;;12.14;58.13;100677.63;4988848;28;20197;-71
2022/12/28 07:59:39;;;;;;;9.77;6.83;;;;;;;12.23;57.85;100689.88;4991572;28;20225;-70
2022/12/28 08:02:06;;;;;;;7.37;5.23;;;;;;;12.27;57.83;100683.19;4991594;28;20260;-71
2022/12/28 08:04:33;;;;;;;15.53;6.50;;;;;;;12.35;57.36;100685.78;4991819;28;20631;-71
2022/12/28 08:07:01;;;;;;;7.80;7.10;;;;;;;12.38;57.36;100681.94;4991812;28;20233;-71
2022/12/28 08:09:28;;;;;;;10.07;6.40;;;;;;;12.47;56.92;100703.00;4991467;28;20240;-69
2022/12/28 08:11:54;;;;;;;15.17;7.50;;;;;;;12.51;56.93;100704.31;4995081;28;20629;-68
2022/12/28 08:14:21;;;;;;;14.93;8.57;;;;;;;12.53;57.00;100699.63;4996400;28;20197;-69
2022/12/28 08:16:47;;;;;;;19.00;8.53;;;;;;;12.56;57.36;100703.75;4994205;28;20261;-68
2022/12/28 08:19:14;;;;;;;16.00;8.17;;;;;;;12.59;57.23;100712.25;4994530;28;20252;-71
2022/12/28 08:21:43;;;;;;;13.73;8.30;;;;;;;12.54;56.77;100709.28;4995211;28;20256;-71
2022/12/28 08:24:14;;;;;;;11.70;9.03;;;;;;;12.40;56.48;100715.38;4995581;28;20198;-71
2022/12/28 08:26:41;;;;;;;18.40;8.90;;;;;;;12.40;57.15;100720.72;4994916;28;20190;-70
2022/12/28 08:29:11;;;;;;;14.23;9.53;;;;;;;12.18;57.46;100718.88;4995180;28;20193;-71
2022/12/28 08:31:40;;;;;;;14.07;10.60;;;;;;;12.23;57.63;100719.19;4995225;28;20248;-70
2022/12/28 08:34:08;;;;;;;23.53;12.50;;;;;;;12.08;57.97;100728.91;4995032;28;20205;-69
2022/12/28 08:36:35;;;;;;;26.80;13.43;;;;;;;11.78;58.99;100716.44;4994752;28;20743;-69
2022/12/28 08:39:03;;;;;;;22.30;10.23;;;;;;;11.92;59.18;100738.84;4994718;28;20622;-70
2022/12/28 08:41:32;;;;;;;15.03;9.77;;;;;;;11.94;59.22;100727.00;4994707;28;20216;-76
2022/12/28 08:43:59;;;;;;;24.13;12.03;;;;;;;11.94;59.64;100731.50;4993461;28;20669;-70
2022/12/28 08:46:28;;;;;;;21.00;8.73;;;;;;;11.94;59.80;100711.03;4993059;28;20197;-74
2022/12/28 08:48:56;;;;;;;28.97;10.87;;;;;;;12.03;60.02;100720.63;4991945;28;20193;-74
2022/12/28 08:51:24;;;;;;;20.67;9.83;;;;;;;12.09;59.65;100727.09;4995277;28;20205;-69
2022/12/28 08:53:51;;;;;;;20.90;8.77;;;;;;;11.99;59.47;100714.00;4995946;28;20205;-73
2022/12/28 08:56:20;;;;;;;16.50;8.97;;;;;;;11.94;59.64;100736.81;4992186;28;20206;-71
2022/12/28 08:58:49;;;;;;;13.60;9.50;;;;;;;11.87;60.29;100741.16;4993079;28;20200;-73
2022/12/28 09:01:17;;;;;;;19.77;9.23;;;;;;;12.07;65.79;100727.25;4994297;28;20232;-69
2022/12/28 09:03:46;;;;;;;24.07;9.77;;;;;;;12.15;62.02;100727.22;4994561;28;20255;-70
2022/12/28 09:06:16;;;;;;;18.77;8.13;;;;;;;12.14;61.53;100736.22;4995160;28;20377;-71
2022/12/28 09:08:42;;;;;;;13.93;9.00;;;;;;;12.15;61.46;100729.88;4995239;28;20279;-70
2022/12/28 09:11:11;;;;;;;13.50;8.17;;;;;;;12.07;61.83;100745.91;4995362;28;20271;-70
2022/12/28 09:13:39;;;;;;;12.20;8.40;;;;;;;12.03;61.83;100725.97;4995007;28;20221;-70
2022/12/28 09:16:10;;;;;;;13.00;7.83;;;;;;;12.03;61.69;100731.28;4993380;28;20241;-70
2022/12/28 09:18:37;;;;;;;13.90;10.20;;;;;;;12.00;61.70;100747.59;4994946;28;20200;-73
2022/12/28 09:21:05;;;;;;;10.73;8.20;;;;;;;11.97;61.81;100745.28;4994342;28;20290;-69
2022/12/28 09:23:32;;;;;;;12.27;7.70;;;;;;;11.86;61.69;100745.69;4995327;28;20197;-70
2022/12/28 09:26:04;;;;;;;19.53;11.60;;;;;;;11.90;61.84;100757.66;4995119;28;20637;-69
2022/12/28 09:28:31;;;;;;;17.90;12.10;;;;;;;11.93;61.87;100754.66;4993229;28;20186;-71
2022/12/28 09:30:58;;;;;;;10.80;8.70;;;;;;;11.94;61.59;100748.31;4994469;28;20192;-70
2022/12/28 09:36:10;;;;;;;15.23;9.40;;;;;;;12.02;61.72;100739.44;4993550;28;20255;-70
2022/12/28 09:38:37;;;;;;;12.07;10.73;;;;;;;12.09;61.69;100735.09;4994102;28;20251;-71
2022/12/28 09:41:11;;;;;;;11.17;9.10;;;;;;;12.06;61.89;100725.63;4993397;28;20375;-69
2022/12/28 09:43:41;;;;;;;15.93;9.80;;;;;;;12.15;61.88;100721.88;5008687;28;20289;-69
2022/12/28 09:46:11;;;;;;;17.83;9.03;;;;;;;12.10;62.10;100723.41;5012613;28;20251;-71
2022/12/28 09:48:41;;;;;;;16.33;9.60;;;;;;;12.11;62.26;100717.06;5012988;28;20200;-70
2022/12/28 09:51:09;;;;;;;13.60;9.60;;;;;;;12.19;62.39;100725.03;5013791;28;20251;-70
2022/12/28 09:53:36;;;;;;;13.77;9.67;;;;;;;12.08;62.08;100723.59;5011903;28;20250;-68
2022/12/28 09:56:06;;;;;;;9.00;7.87;;;;;;;12.01;62.31;100705.84;5013665;28;20262;-71
2022/12/28 09:58:39;;;;;;;11.93;10.77;;;;;;;12.14;62.45;100712.25;5013093;28;20189;-71
2022/12/28 10:01:12;;;;;;;11.10;10.00;;;;;;;12.15;62.56;100707.72;5008913;28;20281;-71
2022/12/28 10:03:41;;;;;;;18.63;15.40;;;;;;;12.17;62.77;100703.88;5010313;28;20925;-72
2022/12/28 10:06:12;;;;;;;21.50;12.67;;;;;;;12.25;62.56;100698.50;5010973;28;20251;-70
2022/12/28 10:08:42;;;;;;;11.60;9.70;;;;;;;12.29;62.30;100694.47;5008985;28;20231;-71
2022/12/28 10:11:13;;;;;;;15.10;11.30;;;;;;;12.34;62.24;100692.13;5012571;28;20199;-72
2022/12/28 10:13:40;;;;;;;9.13;8.23;;;;;;;12.39;62.15;100689.75;5012147;28;20251;-73
2022/12/28 10:16:15;;;;;;;8.30;7.57;;;;;;;12.38;62.07;100688.09;5012294;28;20197;-68
2022/12/28 10:18:43;;;;;;;8.50;7.37;;;;;;;12.45;62.36;100697.03;5011362;28;20204;-66
2022/12/28 10:21:11;;;;;;;8.97;7.90;;;;;;;12.51;62.27;100690.16;5013914;28;20280;-67
2022/12/28 10:23:40;;;;;;;10.87;8.17;;;;;;;12.58;62.50;100699.09;5013501;28;20263;-66
2022/12/28 10:26:12;;;;;;;22.33;15.97;;;;;;;12.59;61.94;100690.94;5013566;28;20232;-66
2022/12/28 10:28:44;;;;;;;10.77;8.37;;;;;;;12.63;62.22;100686.06;5008853;28;20260;-67
2022/12/28 10:31:11;;;;;;;13.53;7.87;;;;;;;12.69;61.37;100686.16;4991837;28;20197;-66
2022/12/28 10:33:39;;;;;;;18.10;9.60;;;;;;;12.72;60.75;100685.81;4992303;28;20255;-64
2022/12/28 10:36:12;;;;;;;7.20;6.60;;;;;;;12.73;60.60;100681.28;4991574;28;20205;-66
2022/12/28 10:38:43;;;;;;;10.63;8.70;;;;;;;12.57;60.52;100682.25;4994135;28;20256;-67
2022/12/28 10:41:11;;;;;;;12.40;10.03;;;;;;;12.46;62.28;100677.34;4994128;28;20218;-67
2022/12/28 10:43:41;;;;;;;12.83;9.70;;;;;;;12.21;63.57;100680.41;4993979;28;20198;-66
2022/12/28 10:46:16;;;;;;;18.33;11.03;;;;;;;12.27;64.08;100679.69;4993675;28;20197;-65
2022/12/28 10:48:47;;;;;;;8.43;7.57;;;;;;;12.24;63.82;100680.03;4993914;28;20193;-65
2022/12/28 10:51:18;;;;;;;9.53;7.90;;;;;;;12.14;64.01;100672.28;4993666;28;20648;-68
2022/12/28 10:53:47;;;;;;;8.73;7.80;;;;;;;12.00;64.39;100675.69;4993907;28;20551;-67
2022/12/28 10:56:23;;;;;;;9.23;8.37;;;;;;;11.89;65.18;100660.16;4993921;28;20192;-66
2022/12/28 10:58:52;;;;;;;10.47;7.37;;;;;;;11.93;65.25;100658.78;4993280;28;20187;-68
2022/12/28 11:01:24;;;;;;;8.60;7.80;;;;;;;12.00;64.30;100674.91;4993568;28;20226;-67
2022/12/28 11:04:04;;;;;;;11.17;6.97;;;;;;;11.86;64.44;100687.13;4993723;28;20193;-67
2022/12/28 11:06:33;;;;;;;7.53;6.80;;;;;;;11.93;63.90;100687.25;4993734;28;20195;-67
2022/12/28 11:09:16;;;;;;;7.93;6.30;;;;;;;11.88;63.81;100678.97;4993342;28;20225;-68
2022/12/28 11:11:44;;;;;;;7.57;6.83;;;;;;;11.73;64.77;100676.22;4993231;28;20192;-66
2022/12/28 11:14:18;;;;;;;6.73;5.77;;;;;;;11.80;64.60;100674.50;4994082;28;20196;-67
2022/12/28 11:16:44;;;;;;;9.30;5.60;;;;;;;11.88;65.01;100679.75;4993805;28;20541;-67
2022/12/28 11:19:12;;;;;;;8.97;5.57;;;;;;;11.77;65.52;100666.88;4993883;28;20274;-67
2022/12/28 11:21:42;;;;;;;5.87;5.37;;;;;;;11.68;66.62;100677.72;4992964;28;20742;-67
2022/12/28 11:24:13;;;;;;;6.30;5.80;;;;;;;11.78;67.29;100679.19;4993682;28;20264;-67
2022/12/28 11:26:43;;;;;;;13.23;6.43;;;;;;;11.86;67.38;100684.47;4993598;28;20252;-67
2022/12/28 11:29:13;;;;;;;9.60;5.50;;;;;;;11.85;67.69;100677.47;4993332;28;20254;-68
2022/12/28 11:31:44;;;;;;;8.53;5.93;;;;;;;11.83;68.70;100675.97;4992918;28;20736;-67
2022/12/28 11:34:17;;;;;;;18.83;7.27;;;;;;;11.79;68.92;100675.50;4993242;28;20188;-67
2022/12/28 11:36:46;;;;;;;7.10;5.97;;;;;;;11.79;69.33;100664.84;4992533;28;20749;-68
2022/12/28 11:39:42;;;;;;;7.57;6.90;;;;;;;11.81;69.87;100662.84;4992692;28;20196;-68
2022/12/28 11:42:09;;;;;;;11.77;7.20;;;;;;;11.80;69.93;100677.16;4993105;28;20399;-67
2022/12/28 11:44:51;;;;;;;7.40;5.83;;;;;;;11.63;69.81;100672.91;4992015;28;20212;-68
2022/12/28 11:47:31;;;;;;;6.30;5.80;;;;;;;11.45;70.39;100677.63;4993439;28;20192;-68
2022/12/28 11:50:41;;;;;;;7.83;5.83;;;;;;;11.37;70.89;100674.16;4993176;28;20184;-66
2022/12/28 11:53:43;;;;;;;6.87;6.23;;;;;;;11.53;70.68;100669.63;4992774;28;20195;-67
2022/12/28 11:56:11;;;;;;;8.37;7.00;;;;;;;11.67;70.32;100660.94;4992349;28;20664;-68
2022/12/28 11:59:02;;;;;;;11.50;6.50;;;;;;;11.75;69.92;100668.88;4992456;28;20204;-70
2022/12/28 12:01:51;;;;;;;7.17;5.83;;;;;;;11.80;69.92;100661.19;4992418;28;20642;-68